createdAt,value
2022-11-20T00:02:38.726Z,97701.88
2022-11-20T00:05:42.924Z,97695.22
2022-11-20T00:08:46.442Z,97688.53
2022-11-20T00:11:49.164Z,97693.91
2022-11-20T00:14:51.832Z,97698.69
2022-11-20T00:17:54.547Z,97695.22
2022-11-20T00:21:03.977Z,97698.41
2022-11-20T00:24:07.508Z,97699.50
2022-11-20T00:27:10.181Z,97691.81
2022-11-20T00:30:15.038Z,97695.50
2022-11-20T00:33:18.078Z,97692.59
2022-11-20T00:36:24.450Z,97680.88
2022-11-20T00:39:27.176Z,97681.91
2022-11-20T00:42:29.953Z,97694.44
2022-11-20T00:45:32.643Z,97686.69
2022-11-20T00:48:35.314Z,97689.34
2022-11-20T00:51:39.370Z,97687.50
2022-11-20T00:54:42.061Z,97691.25
2022-11-20T00:57:44.736Z,97692.63
2022-11-20T01:00:47.450Z,97689.34
2022-11-20T01:03:52.428Z,97685.94
2022-11-20T01:06:56.521Z,97688.88
2022-11-20T01:09:59.390Z,97694.94
2022-11-20T01:13:15.987Z,97688.53
2022-11-20T01:16:21.550Z,97692.81
2022-11-20T01:19:25.831Z,97701.09
2022-11-20T01:22:30.071Z,97705.31
2022-11-20T01:25:32.744Z,97703.75
2022-11-20T01:28:36.013Z,97704.03
2022-11-20T01:31:39.419Z,97708.25
2022-11-20T01:34:42.044Z,97712.50
2022-11-20T01:37:46.007Z,97713.84
2022-11-20T01:40:57.257Z,97706.66
2022-11-20T01:43:59.290Z,97705.81
2022-11-20T01:47:06.530Z,97701.53
2022-11-20T01:50:16.549Z,97703.09
2022-11-20T01:53:26.020Z,97704.44
2022-11-20T01:56:30.470Z,97703.09
2022-11-20T01:59:33.410Z,97707.41
2022-11-20T02:02:36.589Z,97698.00
2022-11-20T02:05:47.071Z,97714.03
2022-11-20T02:08:51.236Z,97706.59
2022-11-20T02:11:54.367Z,97712.47
2022-11-20T02:14:56.076Z,97722.03
2022-11-20T02:17:59.085Z,97715.41
2022-11-20T02:21:06.913Z,97707.97
2022-11-20T02:24:13.345Z,97704.00
2022-11-20T02:27:18.693Z,97708.03
2022-11-20T02:30:21.605Z,97708.00
2022-11-20T02:33:24.219Z,97709.56
2022-11-20T02:36:29.183Z,97707.22
2022-11-20T02:39:33.291Z,97708.25
2022-11-20T02:42:36.009Z,97709.88
2022-11-20T02:45:38.906Z,97713.09
2022-11-20T02:48:41.644Z,97709.91
2022-11-20T02:51:44.395Z,97709.91
2022-11-20T02:54:48.405Z,97711.00
2022-11-20T02:57:51.059Z,97712.09
2022-11-20T03:00:54.510Z,97706.50
2022-11-20T03:03:57.488Z,97707.03
2022-11-20T03:07:00.341Z,97699.03
2022-11-20T03:10:05.150Z,97699.03
2022-11-20T03:13:07.783Z,97696.66
2022-11-20T03:16:12.628Z,97693.97
2022-11-20T03:19:15.444Z,97693.72
2022-11-20T03:22:18.112Z,97689.47
2022-11-20T03:25:22.442Z,97685.72
2022-11-20T03:28:25.193Z,97691.56
2022-11-20T03:31:30.105Z,97689.16
2022-11-20T03:34:32.797Z,97694.19
2022-11-20T03:37:35.420Z,97697.66
2022-11-20T03:40:39.839Z,97693.16
2022-11-20T03:43:42.806Z,97690.22
2022-11-20T03:46:45.476Z,97683.06
2022-11-20T03:49:48.118Z,97684.69
2022-11-20T03:52:50.778Z,97679.13
2022-11-20T03:55:54.792Z,97683.13
2022-11-20T03:58:57.767Z,97678.06
2022-11-20T04:02:00.453Z,97682.03
2022-11-20T04:05:03.158Z,97686.00
2022-11-20T04:08:06.425Z,97689.94
2022-11-20T04:11:15.869Z,97688.59
2022-11-20T04:14:18.672Z,97680.34
2022-11-20T04:17:21.327Z,97680.31
2022-11-20T04:20:24.068Z,97675.25
2022-11-20T04:23:28.829Z,97677.38
2022-11-20T04:26:33.620Z,97671.25
2022-11-20T04:29:36.455Z,97672.28
2022-11-20T04:32:39.081Z,97670.97
2022-11-20T04:35:41.736Z,97673.94
2022-11-20T04:38:44.620Z,97673.09
2022-11-20T04:41:48.677Z,97677.41
2022-11-20T04:44:51.330Z,97671.25
2022-11-20T04:47:54.618Z,97669.94
2022-11-20T04:50:57.563Z,97662.53
2022-11-20T04:54:00.517Z,97669.72
2022-11-20T04:57:04.737Z,97666.53
2022-11-20T05:00:08.720Z,97666.31
2022-11-20T05:03:11.412Z,97666.88
2022-11-20T05:06:15.910Z,97669.25
2022-11-20T05:09:18.891Z,97669.22
2022-11-20T05:12:23.196Z,97664.13
2022-11-20T05:15:26.180Z,97658.53
2022-11-20T05:18:28.979Z,97660.41
2022-11-20T05:21:32.798Z,97658.53
2022-11-20T05:24:35.715Z,97665.19
2022-11-20T05:27:39.866Z,97666.25
2022-11-20T05:30:42.544Z,97669.47
2022-11-20T05:33:46.339Z,97670.03
2022-11-20T05:36:49.026Z,97671.63
2022-11-20T05:39:51.720Z,97666.09
2022-11-20T05:42:55.745Z,97675.44
2022-11-20T05:45:58.396Z,97675.72
2022-11-20T05:49:01.035Z,97666.16
2022-11-20T05:52:03.699Z,97665.13
2022-11-20T05:55:07.279Z,97665.13
2022-11-20T05:58:11.280Z,97668.63
2022-11-20T06:01:16.147Z,97667.31
2022-11-20T06:04:18.790Z,97664.38
2022-11-20T06:07:21.605Z,97671.31
2022-11-20T06:10:24.360Z,97671.81
2022-11-20T06:13:31.264Z,97666.00
2022-11-20T06:16:33.899Z,97662.25
2022-11-20T06:19:38.077Z,97656.91
2022-11-20T06:22:40.781Z,97664.13
2022-11-20T06:25:44.856Z,97660.91
2022-11-20T06:28:49.892Z,97661.19
2022-11-20T06:31:52.640Z,97658.22
2022-11-20T06:34:55.378Z,97650.50
2022-11-20T06:37:58.341Z,97650.00
2022-11-20T06:41:00.958Z,97656.41
2022-11-20T06:44:05.960Z,97658.25
2022-11-20T06:47:08.677Z,97663.31
2022-11-20T06:50:11.578Z,97667.84
2022-11-20T06:53:14.289Z,97661.69
2022-11-20T06:56:16.994Z,97670.25
2022-11-20T06:59:22.560Z,97667.34
2022-11-20T07:02:25.471Z,97671.59
2022-11-20T07:05:28.118Z,97669.72
2022-11-20T07:08:31.047Z,97670.81
2022-11-20T07:11:33.793Z,97670.53
2022-11-20T07:14:37.815Z,97655.88
2022-11-20T07:17:40.460Z,97662.81
2022-11-20T07:20:43.232Z,97664.44
2022-11-20T07:23:46.100Z,97673.22
2022-11-20T07:26:50.035Z,97667.38
2022-11-20T07:29:54.042Z,97678.31
2022-11-20T07:32:57.916Z,97676.44
2022-11-20T07:39:31.118Z,97677.78
2022-11-20T07:42:33.937Z,97685.25
2022-11-20T07:45:38.179Z,97682.06
2022-11-20T07:48:40.851Z,97681.00
2022-11-20T07:51:43.621Z,97685.00
2022-11-20T07:54:46.280Z,97685.53
2022-11-20T07:57:56.330Z,97699.91
2022-11-20T08:01:00.700Z,97692.44
2022-11-20T08:04:03.399Z,97695.66
2022-11-20T08:07:06.268Z,97700.22
2022-11-20T08:10:11.342Z,97701.28
2022-11-20T08:13:31.555Z,97697.53
2022-11-20T08:16:35.569Z,97696.72
2022-11-20T08:19:42.880Z,97706.06
2022-11-20T08:22:45.577Z,97699.41
2022-11-20T08:25:51.878Z,97702.06
2022-11-20T08:28:56.417Z,97705.78
2022-11-20T08:32:00.468Z,97715.94
2022-11-20T08:35:03.198Z,97704.19
2022-11-20T08:38:06.817Z,97710.34
2022-11-20T08:41:27.945Z,97714.34
2022-11-20T08:44:30.614Z,97710.56
2022-11-20T08:47:34.592Z,97706.81
2022-11-20T08:50:37.252Z,97714.53
2022-11-20T08:53:40.346Z,97716.16
2022-11-20T08:56:43.020Z,97720.16
2022-11-20T09:00:05.033Z,97727.59
2022-11-20T09:03:09.854Z,97726.31
2022-11-20T09:06:12.484Z,97732.19
2022-11-20T09:09:15.127Z,97726.03
2022-11-20T09:12:17.976Z,97729.78
2022-11-20T09:15:21.495Z,97724.97
2022-11-20T09:18:26.413Z,97739.38
2022-11-20T09:21:29.092Z,97730.28
2022-11-20T09:24:31.750Z,97739.63
2022-11-20T09:27:34.419Z,97739.13
2022-11-20T09:30:37.434Z,97743.94
2022-11-20T09:33:41.538Z,97743.13
2022-11-20T09:36:44.187Z,97743.97
2022-11-20T09:39:47.143Z,97746.09
2022-11-20T09:42:58.511Z,97756.78
2022-11-20T09:46:10.910Z,97758.41
2022-11-20T09:49:32.573Z,97751.72
2022-11-20T09:52:44.267Z,97762.41
2022-11-20T09:55:47.972Z,97766.41
2022-11-20T09:58:53.973Z,97758.41
2022-11-20T10:01:57.690Z,97749.06
2022-11-20T10:05:08.474Z,97757.88
2022-11-20T10:08:19.730Z,97761.88
2022-11-20T10:11:35.317Z,97756.00
2022-11-20T10:14:50.548Z,97761.34
2022-11-20T10:18:11.381Z,97765.91
2022-11-20T10:21:25.760Z,97768.56
2022-11-20T10:24:57.058Z,97774.44
2022-11-20T10:28:20.842Z,97771.22
2022-11-20T10:31:33.528Z,97765.34
2022-11-20T10:34:46.759Z,97763.50
2022-11-20T10:37:56.727Z,97769.63
2022-11-20T10:41:16.502Z,97776.03
2022-11-20T10:44:37.061Z,97765.09
2022-11-20T10:47:39.701Z,97756.53
2022-11-20T10:50:51.842Z,97758.13
2022-11-20T10:54:03.808Z,97757.06
2022-11-20T10:57:16.436Z,97754.13
2022-11-20T11:00:19.180Z,97755.19
2022-11-20T11:03:28.239Z,97754.94
2022-11-20T11:06:38.296Z,97753.03
2022-11-20T11:09:45.991Z,97755.19
2022-11-20T11:12:49.887Z,97754.13
2022-11-20T11:15:53.360Z,97743.97
2022-11-20T11:19:06.585Z,97744.53
2022-11-20T11:22:17.824Z,97740.22
2022-11-20T11:25:30.878Z,97722.28
2022-11-20T11:28:33.817Z,97719.75
2022-11-20T11:31:37.287Z,97709.84
2022-11-20T11:34:39.951Z,97710.47
2022-11-20T11:37:42.981Z,97693.75
2022-11-20T11:40:48.649Z,97693.41
2022-11-20T11:44:12.593Z,97683.47
2022-11-20T11:47:25.008Z,97673.25
2022-11-20T11:50:29.466Z,97674.31
2022-11-20T11:53:32.457Z,97676.06
2022-11-20T11:56:36.684Z,97671.31
2022-11-20T11:59:53.487Z,97674.81
2022-11-20T12:03:06.243Z,97667.56
2022-11-20T12:06:14.777Z,97673.66
2022-11-20T12:09:20.961Z,97668.28
2022-11-20T12:12:29.392Z,97672.44
2022-11-20T12:15:35.680Z,97665.63
2022-11-20T12:18:38.346Z,97659.81
2022-11-20T12:21:59.981Z,97647.50
2022-11-20T12:25:11.576Z,97643.97
2022-11-20T12:28:37.848Z,97640.16
2022-11-20T12:31:54.993Z,97643.66
2022-11-20T12:35:11.225Z,97635.41
2022-11-20T12:38:47.276Z,97628.84
2022-11-20T12:42:16.614Z,97633.28
2022-11-20T12:45:55.359Z,97641.81
2022-11-20T12:49:17.820Z,97653.66
2022-11-20T12:52:37.153Z,97651.50
2022-11-20T12:55:51.590Z,97652.25
2022-11-20T12:59:09.954Z,97642.66
2022-11-20T13:02:26.384Z,97645.56
2022-11-20T13:05:36.381Z,97657.78
2022-11-20T13:08:41.764Z,97648.63
2022-11-20T13:11:49.638Z,97666.91
2022-11-20T13:14:58.315Z,97662.38
2022-11-20T13:18:04.955Z,97654.59
2022-11-20T13:21:17.351Z,97644.28
2022-11-20T13:24:27.339Z,97659.72
2022-11-20T13:27:31.875Z,97634.97
2022-11-20T13:30:36.360Z,97636.97
2022-11-20T13:33:41.066Z,97629.75
2022-11-20T13:36:53.104Z,97623.81
2022-11-20T13:40:07.670Z,97613.22
2022-11-20T13:43:19.987Z,97624.41
2022-11-20T13:46:25.459Z,97615.19
2022-11-20T13:49:34.111Z,97617.72
2022-11-20T13:52:48.255Z,97628.75
2022-11-20T13:55:57.264Z,97625.47
2022-11-20T13:59:14.605Z,97627.13
2022-11-20T14:02:21.378Z,97626.44
2022-11-20T14:05:25.850Z,97630.06
2022-11-20T14:08:35.569Z,97642.97
2022-11-20T14:11:38.211Z,97637.47
2022-11-20T14:14:51.979Z,97625.88
2022-11-20T14:17:54.826Z,97622.41
2022-11-20T14:21:02.536Z,97619.78
2022-11-20T14:24:06.566Z,97620.91
2022-11-20T14:27:15.333Z,97620.69
2022-11-20T14:30:20.441Z,97628.59
2022-11-20T14:33:25.770Z,97628.63
2022-11-20T14:36:30.031Z,97621.97
2022-11-20T14:39:35.788Z,97620.34
2022-11-20T14:42:38.463Z,97622.50
2022-11-20T14:45:41.232Z,97616.34
2022-11-20T14:48:46.484Z,97608.59
2022-11-20T14:52:01.619Z,97601.16
2022-11-20T14:55:04.523Z,97588.66
2022-11-20T14:58:08.608Z,97589.19
2022-11-20T15:01:15.351Z,97582.78
2022-11-20T15:04:18.123Z,97582.03
2022-11-20T15:07:30.561Z,97580.97
2022-11-20T15:10:33.585Z,97572.72
2022-11-20T15:13:39.445Z,97571.97
2022-11-20T15:16:42.476Z,97573.06
2022-11-20T15:19:45.423Z,97571.44
2022-11-20T15:22:49.489Z,97571.81
2022-11-20T15:25:52.429Z,97564.91
2022-11-20T15:28:55.912Z,97570.56
2022-11-20T15:31:58.738Z,97576.72
2022-11-20T15:35:01.569Z,97577.81
2022-11-20T15:38:05.761Z,97561.81
2022-11-20T15:41:09.254Z,97564.78
2022-11-20T15:44:12.144Z,97557.56
2022-11-20T15:47:14.859Z,97559.22
2022-11-20T15:50:19.554Z,97565.66
2022-11-20T15:53:23.571Z,97562.78
2022-11-20T15:56:26.630Z,97564.94
2022-11-20T15:59:29.339Z,97555.06
2022-11-20T16:02:32.004Z,97559.31
2022-11-20T16:05:34.781Z,97556.13
2022-11-20T16:08:38.851Z,97556.41
2022-11-20T16:11:41.523Z,97554.00
2022-11-20T16:15:02.077Z,97545.22
2022-11-20T16:18:04.932Z,97550.50
2022-11-20T16:21:13.336Z,97550.25
2022-11-20T16:24:17.934Z,97531.59
2022-11-20T16:27:20.718Z,97539.03
2022-11-20T16:30:23.375Z,97536.38
2022-11-20T16:33:26.022Z,97538.75
2022-11-20T16:36:30.848Z,97534.19
2022-11-20T16:39:34.836Z,97536.88
2022-11-20T16:42:38.613Z,97536.88
2022-11-20T16:45:46.021Z,97530.97
2022-11-20T16:48:54.472Z,97528.84
2022-11-20T16:51:57.135Z,97524.84
2022-11-20T16:55:01.291Z,97531.22
2022-11-20T16:58:03.960Z,97540.03
2022-11-20T17:01:10.454Z,97526.16
2022-11-20T17:04:13.377Z,97520.53
2022-11-20T17:07:16.476Z,97517.31
2022-11-20T17:10:20.686Z,97511.72
2022-11-20T17:13:23.291Z,97506.66
2022-11-20T17:16:26.033Z,97504.22
2022-11-20T17:19:28.735Z,97503.97
2022-11-20T17:22:32.537Z,97501.00
2022-11-20T17:25:36.616Z,97498.31
2022-11-20T17:28:39.694Z,97500.97
2022-11-20T17:31:42.703Z,97495.63
2022-11-20T17:34:45.428Z,97501.25
2022-11-20T17:37:48.066Z,97493.22
2022-11-20T17:40:52.255Z,97497.72
2022-11-20T17:43:56.296Z,97487.31
2022-11-20T17:46:58.919Z,97486.50
2022-11-20T17:50:01.577Z,97480.06
2022-11-20T17:53:04.291Z,97476.88
2022-11-20T17:56:26.408Z,97474.47
2022-11-20T17:59:29.116Z,97472.88
2022-11-20T18:02:32.007Z,97459.25
2022-11-20T18:05:34.685Z,97465.13
2022-11-20T18:08:37.403Z,97455.22
2022-11-20T18:11:42.881Z,97455.72
2022-11-20T18:14:45.610Z,97461.63
2022-11-20T18:17:48.353Z,97452.25
2022-11-20T18:20:54.416Z,97440.81
2022-11-20T18:23:57.767Z,97442.91
2022-11-20T18:27:01.842Z,97438.09
2022-11-20T18:30:05.196Z,97422.88
2022-11-20T18:33:08.205Z,97425.59
2022-11-20T18:36:12.244Z,97423.44
2022-11-20T18:39:15.558Z,97417.06
2022-11-20T18:42:37.266Z,97424.00
2022-11-20T18:45:39.910Z,97433.34
2022-11-20T18:48:42.618Z,97447.25
2022-11-20T18:51:48.219Z,97433.09
2022-11-20T18:54:51.671Z,97426.97
2022-11-20T18:57:56.100Z,97422.41
2022-11-20T19:01:05.981Z,97415.03
2022-11-20T19:04:09.553Z,97402.00
2022-11-20T19:07:12.988Z,97405.22
2022-11-20T19:10:18.815Z,97403.88
2022-11-20T19:13:22.987Z,97404.72
2022-11-20T19:16:25.877Z,97408.16
2022-11-20T19:19:29.006Z,97404.13
2022-11-20T19:22:31.671Z,97405.75
2022-11-20T19:25:38.116Z,97395.16
2022-11-20T19:28:42.488Z,97398.63
2022-11-20T19:31:45.329Z,97397.31
2022-11-20T19:34:48.076Z,97397.56
2022-11-20T19:37:52.621Z,97385.28
2022-11-20T19:40:55.270Z,97384.47
2022-11-20T19:44:00.847Z,97393.84
2022-11-20T19:47:09.012Z,97382.34
2022-11-20T19:50:18.713Z,97380.72
2022-11-20T19:53:21.393Z,97384.22
2022-11-20T19:56:27.175Z,97387.75
2022-11-20T19:59:31.195Z,97380.00
2022-11-20T20:02:34.132Z,97386.44
2022-11-20T20:05:36.782Z,97389.66
2022-11-20T20:08:39.443Z,97377.91
2022-11-20T20:11:46.270Z,97383.81
2022-11-20T20:14:50.259Z,97376.38
2022-11-20T20:17:53.269Z,97387.84
2022-11-20T20:20:58.501Z,97388.69
2022-11-20T20:24:05.736Z,97388.94
2022-11-20T20:27:08.444Z,97381.19
2022-11-20T20:30:14.016Z,97378.22
2022-11-20T20:33:16.704Z,97385.97
2022-11-20T20:36:20.914Z,97387.31
2022-11-20T20:39:24.724Z,97381.69
2022-11-20T20:42:27.710Z,97385.72
2022-11-20T20:45:31.863Z,97398.81
2022-11-20T20:48:34.517Z,97393.19
2022-11-20T20:51:37.742Z,97401.47
2022-11-20T20:54:43.362Z,97394.78
2022-11-20T20:57:46.115Z,97399.88
2022-11-20T21:00:50.191Z,97390.28
2022-11-20T21:03:52.800Z,97394.53
2022-11-20T21:06:55.509Z,97396.16
2022-11-20T21:09:58.174Z,97391.91
2022-11-20T21:13:00.884Z,97403.88
2022-11-20T21:16:07.735Z,97395.88
2022-11-20T21:19:10.613Z,97406.00
2022-11-20T21:22:13.324Z,97398.84
2022-11-20T21:25:16.021Z,97396.44
2022-11-20T21:28:18.784Z,97411.09
2022-11-20T21:31:24.854Z,97407.91
2022-11-20T21:34:27.669Z,97394.88
2022-11-20T21:37:30.258Z,97405.28
2022-11-20T21:40:32.982Z,97400.50
2022-11-20T21:43:35.871Z,97408.22
2022-11-20T21:46:42.176Z,97408.50
2022-11-20T21:49:44.826Z,97400.47
2022-11-20T21:52:47.589Z,97405.81
2022-11-20T21:55:54.591Z,97408.50
2022-11-20T21:58:58.103Z,97403.44
2022-11-20T22:02:02.118Z,97399.16
2022-11-20T22:05:05.102Z,97405.03
2022-11-20T22:08:07.881Z,97411.13
2022-11-20T22:11:12.668Z,97410.09
2022-11-20T22:14:21.732Z,97414.34
2022-11-20T22:17:39.899Z,97413.56
2022-11-20T22:20:42.968Z,97410.34
2022-11-20T22:23:45.909Z,97410.38
2022-11-20T22:26:48.802Z,97412.72
2022-11-20T22:29:51.449Z,97428.19
2022-11-20T22:32:56.393Z,97426.28
2022-11-20T22:36:02.400Z,97429.22
2022-11-20T22:39:05.708Z,97416.72
2022-11-20T22:42:08.560Z,97413.22
2022-11-20T22:45:12.434Z,97414.03
2022-11-20T22:48:16.447Z,97411.09
2022-11-20T22:51:20.990Z,97411.16
2022-11-20T22:54:24.052Z,97414.59
2022-11-20T22:57:26.855Z,97417.81
2022-11-20T23:00:29.527Z,97417.28
2022-11-20T23:03:33.594Z,97412.47
2022-11-20T23:06:36.385Z,97413.03
2022-11-20T23:09:39.063Z,97403.16
2022-11-20T23:12:41.816Z,97396.72
2022-11-20T23:15:44.412Z,97400.44
2022-11-20T23:18:48.411Z,97406.81
2022-11-20T23:21:51.059Z,97400.97
2022-11-20T23:24:53.695Z,97406.88
2022-11-20T23:27:56.324Z,97401.00
2022-11-20T23:30:59.439Z,97402.59
2022-11-20T23:34:04.018Z,97416.47
2022-11-20T23:37:06.650Z,97419.13
2022-11-20T23:40:10.149Z,97415.41
2022-11-20T23:43:18.847Z,97411.91
2022-11-20T23:46:21.795Z,97413.81
2022-11-20T23:49:25.816Z,97418.06
2022-11-20T23:52:28.431Z,97422.28
2022-11-20T23:55:31.411Z,97433.25
2022-11-20T23:58:35.888Z,97422.06
